createdAt,value
2023-05-08T00:01:16.929Z,10.65
2023-05-08T00:04:21.305Z,11.38
2023-05-08T00:07:24.250Z,11.27
2023-05-08T00:10:26.771Z,10.77
2023-05-08T00:13:29.326Z,12.00
2023-05-08T00:16:32.784Z,9.93
2023-05-08T00:19:36.716Z,9.57
2023-05-08T00:22:39.263Z,9.37
2023-05-08T00:25:41.889Z,8.52
2023-05-08T00:28:44.640Z,8.15
2023-05-08T00:31:47.171Z,7.03
2023-05-08T00:34:51.310Z,7.45
2023-05-08T00:37:53.787Z,7.97
2023-05-08T00:40:56.285Z,9.30
2023-05-08T00:43:58.814Z,8.70
2023-05-08T00:47:01.760Z,8.10
2023-05-08T00:50:06.796Z,7.43
2023-05-08T00:53:09.639Z,6.53
2023-05-08T00:56:14.963Z,6.65
2023-05-08T00:59:17.790Z,6.90
2023-05-08T01:02:20.954Z,7.47
2023-05-08T01:05:25.249Z,8.13
2023-05-08T01:08:27.823Z,9.03
2023-05-08T01:11:33.833Z,11.57
2023-05-08T01:14:43.258Z,6.90
2023-05-08T01:17:55.146Z,6.20
2023-05-08T01:21:03.627Z,5.20
2023-05-08T01:24:22.780Z,5.77
2023-05-08T01:27:46.699Z,7.50
2023-05-08T01:31:06.650Z,7.80
2023-05-08T01:34:13.326Z,6.33
2023-05-08T01:37:17.044Z,8.97
2023-05-08T01:40:35.240Z,5.77
2023-05-08T01:43:43.042Z,5.90
2023-05-08T01:46:49.713Z,5.33
2023-05-08T01:50:00.247Z,6.30
2023-05-08T01:53:07.341Z,6.63
2023-05-08T01:56:12.435Z,5.90
2023-05-08T01:59:18.387Z,6.40
2023-05-08T02:02:21.818Z,7.03
2023-05-08T02:08:29.428Z,6.60
2023-05-08T02:14:37.399Z,6.32
2023-05-08T02:17:41.023Z,5.73
2023-05-08T02:20:44.959Z,6.63
2023-05-08T02:23:48.249Z,6.67
2023-05-08T02:29:54.574Z,5.87
2023-05-08T02:33:00.646Z,6.90
2023-05-08T02:36:05.640Z,6.60
2023-05-08T02:39:09.179Z,6.60
2023-05-08T02:42:11.738Z,7.43
2023-05-08T02:45:14.541Z,7.28
2023-05-08T02:48:22.185Z,7.95
2023-05-08T02:51:28.282Z,6.97
2023-05-08T02:54:37.955Z,6.47
2023-05-08T02:57:46.752Z,6.77
2023-05-08T03:00:54.180Z,6.10
2023-05-08T03:04:03.560Z,6.17
2023-05-08T03:07:07.545Z,6.80
2023-05-08T03:10:13.090Z,7.37
2023-05-08T03:13:16.179Z,7.07
2023-05-08T03:16:21.726Z,6.38
2023-05-08T03:19:28.649Z,6.47
2023-05-08T03:22:33.790Z,6.47
2023-05-08T03:25:38.527Z,7.43
2023-05-08T03:28:41.298Z,6.63
2023-05-08T03:31:45.624Z,7.10
2023-05-08T03:34:49.174Z,7.23
2023-05-08T03:37:54.053Z,7.90
2023-05-08T03:40:56.534Z,7.87
2023-05-08T03:43:59.645Z,8.20
2023-05-08T03:47:04.247Z,7.32
2023-05-08T03:50:08.267Z,7.77
2023-05-08T03:53:12.361Z,7.90
2023-05-08T03:56:15.171Z,8.10
2023-05-08T03:59:23.176Z,7.85
2023-05-08T04:02:30.209Z,7.37
2023-05-08T04:05:37.633Z,8.63
2023-05-08T04:08:43.971Z,7.50
2023-05-08T04:11:54.175Z,7.07
2023-05-08T04:14:58.031Z,8.03
2023-05-08T04:18:04.295Z,7.70
2023-05-08T04:21:11.491Z,8.50
2023-05-08T04:24:16.478Z,7.50
2023-05-08T04:27:19.428Z,8.10
2023-05-08T04:30:22.136Z,8.63
2023-05-08T04:33:24.796Z,7.40
2023-05-08T04:36:29.458Z,8.02
2023-05-08T04:39:33.539Z,8.07
2023-05-08T04:42:37.002Z,8.10
2023-05-08T04:48:42.260Z,8.07
2023-05-08T04:51:44.762Z,8.57
2023-05-08T04:54:48.731Z,7.93
2023-05-08T04:57:51.431Z,7.80
2023-05-08T05:00:53.994Z,8.18
2023-05-08T05:03:56.645Z,7.55
2023-05-08T05:06:59.506Z,8.00
2023-05-08T05:10:04.218Z,7.43
2023-05-08T05:13:06.957Z,8.33
2023-05-08T05:16:09.572Z,7.40
2023-05-08T05:19:12.525Z,7.82
2023-05-08T05:22:15.301Z,7.50
2023-05-08T05:25:19.342Z,7.55
2023-05-08T05:28:21.920Z,7.17
2023-05-08T05:31:24.644Z,8.75
2023-05-08T05:34:27.588Z,9.25
2023-05-08T05:37:30.466Z,8.48
2023-05-08T05:40:34.384Z,8.60
2023-05-08T05:43:37.454Z,9.07
2023-05-08T05:46:41.512Z,9.75
2023-05-08T05:49:47.275Z,8.20
2023-05-08T05:52:50.117Z,8.30
2023-05-08T05:55:54.018Z,8.45
2023-05-08T05:58:56.621Z,8.97
2023-05-08T06:01:59.381Z,8.45
2023-05-08T06:05:02.038Z,8.23
2023-05-08T06:08:05.923Z,7.03
2023-05-08T06:11:09.769Z,7.77
2023-05-08T06:14:12.368Z,8.07
2023-05-08T06:17:14.987Z,7.68
2023-05-08T06:20:17.839Z,7.53
2023-05-08T06:23:20.551Z,7.88
2023-05-08T06:26:24.882Z,7.85
2023-05-08T06:29:27.399Z,6.20
2023-05-08T06:32:30.097Z,7.07
2023-05-08T06:35:32.734Z,6.72
2023-05-08T06:38:35.280Z,6.57
2023-05-08T06:41:39.166Z,6.93
2023-05-08T06:44:42.038Z,6.80
2023-05-08T06:47:44.736Z,7.35
2023-05-08T06:50:48.133Z,6.88
2023-05-08T06:56:55.212Z,6.57
2023-05-08T06:59:57.772Z,6.63
2023-05-08T07:03:00.551Z,6.40
2023-05-08T07:06:03.136Z,6.68
2023-05-08T07:09:05.869Z,6.93
2023-05-08T07:12:10.087Z,6.32
2023-05-08T07:15:24.688Z,6.43
2023-05-08T07:18:28.807Z,7.97
2023-05-08T07:21:31.609Z,6.68
2023-05-08T07:24:34.281Z,6.82
2023-05-08T07:27:38.474Z,7.30
2023-05-08T07:30:41.110Z,7.03
2023-05-08T07:33:43.887Z,6.90
2023-05-08T07:36:46.775Z,6.70
2023-05-08T07:39:49.352Z,7.43
2023-05-08T07:42:53.261Z,7.10
2023-05-08T07:45:56.022Z,7.17
2023-05-08T07:48:58.719Z,6.90
2023-05-08T07:52:01.275Z,6.45
2023-05-08T07:55:04.224Z,7.10
2023-05-08T07:58:08.189Z,6.70
2023-05-08T08:01:10.773Z,6.23
2023-05-08T08:04:15.321Z,6.22
2023-05-08T08:07:18.137Z,6.40
2023-05-08T08:10:20.812Z,5.35
2023-05-08T08:13:24.929Z,4.63
2023-05-08T08:16:27.881Z,3.70
2023-05-08T08:19:30.549Z,4.65
2023-05-08T08:22:33.577Z,3.83
2023-05-08T08:25:36.365Z,3.92
2023-05-08T08:28:40.315Z,4.13
2023-05-08T08:31:43.188Z,3.73
2023-05-08T08:34:46.285Z,4.32
2023-05-08T08:37:49.212Z,3.90
2023-05-08T08:40:53.213Z,4.28
2023-05-08T08:43:57.490Z,4.03
2023-05-08T08:47:00.733Z,4.87
2023-05-08T08:53:13.171Z,4.22
2023-05-08T08:56:16.873Z,4.40
2023-05-08T08:59:21.256Z,5.30
2023-05-08T09:02:24.732Z,5.30
2023-05-08T09:05:27.686Z,5.20
2023-05-08T09:08:30.515Z,4.88
2023-05-08T09:11:33.460Z,5.65
2023-05-08T09:14:37.735Z,5.57
2023-05-08T09:17:40.730Z,5.70
2023-05-08T09:20:43.346Z,5.97
2023-05-08T09:23:55.920Z,5.88
2023-05-08T09:26:58.551Z,6.25
2023-05-08T09:30:04.587Z,6.25
2023-05-08T09:33:07.548Z,6.70
2023-05-08T09:36:25.962Z,6.47
2023-05-08T09:39:28.559Z,6.10
2023-05-08T09:42:38.814Z,5.63
2023-05-08T09:45:42.970Z,6.20
2023-05-08T09:48:46.558Z,6.37
2023-05-08T09:51:58.546Z,6.10
2023-05-08T09:55:03.004Z,6.20
2023-05-08T09:58:05.528Z,6.77
2023-05-08T10:01:10.639Z,5.88
2023-05-08T10:04:13.297Z,5.60
2023-05-08T10:07:16.438Z,5.15
2023-05-08T10:10:25.374Z,5.17
2023-05-08T10:13:28.434Z,5.30
2023-05-08T10:16:38.545Z,4.80
2023-05-08T10:19:46.057Z,5.70
2023-05-08T10:22:49.978Z,5.00
2023-05-08T10:25:55.123Z,4.70
2023-05-08T10:28:59.246Z,4.97
2023-05-08T10:32:04.564Z,4.78
2023-05-08T10:35:10.245Z,4.68
2023-05-08T10:38:13.759Z,5.23
2023-05-08T10:41:16.805Z,4.50
2023-05-08T10:44:20.559Z,5.50
2023-05-08T10:47:29.133Z,5.27
2023-05-08T10:50:43.761Z,3.90
2023-05-08T10:53:52.307Z,3.07
2023-05-08T10:57:09.084Z,3.53
2023-05-08T11:00:12.787Z,3.13
2023-05-08T11:03:30.778Z,3.60
2023-05-08T11:06:46.563Z,3.20
2023-05-08T11:09:49.351Z,3.07
2023-05-08T11:12:52.764Z,3.13
2023-05-08T11:15:55.627Z,3.40
2023-05-08T11:19:18.658Z,3.38
2023-05-08T11:22:26.817Z,3.40
2023-05-08T11:25:43.412Z,3.93
2023-05-08T11:28:57.665Z,3.87
2023-05-08T11:32:00.562Z,4.03
2023-05-08T11:35:07.016Z,4.32
2023-05-08T11:38:15.332Z,4.35
2023-05-08T11:41:22.769Z,3.85
2023-05-08T11:44:26.868Z,3.60
2023-05-08T11:47:33.813Z,3.47
2023-05-08T11:50:37.886Z,3.50
2023-05-08T11:53:40.884Z,4.80
2023-05-08T11:56:45.141Z,5.00
2023-05-08T11:59:51.163Z,5.05
2023-05-08T12:02:54.074Z,5.43
2023-05-08T12:05:59.668Z,6.53
2023-05-08T12:09:04.881Z,6.32
2023-05-08T12:12:07.879Z,6.47
2023-05-08T12:15:11.911Z,6.88
2023-05-08T12:18:14.779Z,7.03
2023-05-08T12:24:23.740Z,6.85
2023-05-08T12:27:26.750Z,6.10
2023-05-08T12:30:29.594Z,6.22
2023-05-08T12:36:37.798Z,5.45
2023-05-08T12:39:45.415Z,4.90
2023-05-08T12:42:50.808Z,5.18
2023-05-08T12:45:53.527Z,5.80
2023-05-08T12:49:02.568Z,6.03
2023-05-08T12:52:07.860Z,5.90
2023-05-08T12:55:24.593Z,6.13
2023-05-08T12:58:28.925Z,5.13
2023-05-08T13:01:31.828Z,4.55
2023-05-08T13:04:38.016Z,4.75
2023-05-08T13:07:42.650Z,5.25
2023-05-08T13:10:49.070Z,4.43
2023-05-08T13:13:51.667Z,4.35
2023-05-08T13:16:54.485Z,4.60
2023-05-08T13:23:00.991Z,5.50
2023-05-08T13:26:04.115Z,5.03
2023-05-08T13:29:07.170Z,4.80
2023-05-08T13:32:09.898Z,5.32
2023-05-08T13:35:12.660Z,5.15
2023-05-08T13:38:16.900Z,5.50
2023-05-08T13:41:19.364Z,5.65
2023-05-08T13:44:21.941Z,5.53
2023-05-08T13:47:24.567Z,5.95
2023-05-08T13:50:27.201Z,5.90
2023-05-08T13:53:31.105Z,6.47
2023-05-08T13:56:34.223Z,6.40
2023-05-08T13:59:36.976Z,6.50
2023-05-08T14:02:39.558Z,6.82
2023-05-08T14:05:42.207Z,7.03
2023-05-08T14:08:49.608Z,7.07
2023-05-08T14:11:53.765Z,7.10
2023-05-08T14:14:56.492Z,7.38
2023-05-08T14:17:59.113Z,6.82
2023-05-08T14:21:01.829Z,7.05
2023-05-08T14:24:06.736Z,7.25
2023-05-08T14:27:09.417Z,6.67
2023-05-08T14:30:13.058Z,6.93
2023-05-08T14:33:17.835Z,6.47
2023-05-08T14:36:21.773Z,6.90
2023-05-08T14:39:25.720Z,7.28
2023-05-08T14:42:28.375Z,6.97
2023-05-08T14:45:30.877Z,6.68
2023-05-08T14:48:33.467Z,7.15
2023-05-08T14:51:35.970Z,7.63
2023-05-08T14:54:39.912Z,8.23
2023-05-08T14:57:42.575Z,8.67
2023-05-08T15:00:45.294Z,10.75
2023-05-08T15:03:53.100Z,10.27
2023-05-08T15:06:56.030Z,9.87
2023-05-08T15:10:01.067Z,10.83
2023-05-08T15:13:03.952Z,10.77
2023-05-08T15:16:07.210Z,11.70
2023-05-08T15:22:12.897Z,13.00
2023-05-08T15:25:17.134Z,12.35
2023-05-08T15:28:19.917Z,13.23
2023-05-08T15:31:23.436Z,11.75
2023-05-08T15:34:29.049Z,12.73
2023-05-08T15:37:36.198Z,12.87
2023-05-08T15:40:40.210Z,11.17
2023-05-08T15:43:42.942Z,9.73
2023-05-08T15:46:45.648Z,9.10
2023-05-08T15:49:48.196Z,8.35
2023-05-08T15:52:51.087Z,8.38
2023-05-08T15:55:55.819Z,8.90
2023-05-08T15:58:58.336Z,9.40
2023-05-08T16:02:00.892Z,9.23
2023-05-08T16:05:03.859Z,8.73
2023-05-08T16:11:11.857Z,8.67
2023-05-08T16:14:14.615Z,10.30
2023-05-08T16:17:17.439Z,9.25
2023-05-08T16:20:20.668Z,9.55
2023-05-08T16:23:23.405Z,10.33
2023-05-08T16:26:27.571Z,9.05
2023-05-08T16:29:30.115Z,9.20
2023-05-08T16:32:32.952Z,9.45
2023-05-08T16:35:35.731Z,9.68
2023-05-08T16:38:38.506Z,9.93
2023-05-08T16:41:42.538Z,10.93
2023-05-08T16:44:45.119Z,10.73
2023-05-08T16:47:47.991Z,10.85
2023-05-08T16:50:50.977Z,9.65
2023-05-08T16:53:54.522Z,10.57
2023-05-08T16:56:59.483Z,10.93
2023-05-08T17:00:02.173Z,9.67
2023-05-08T17:03:05.048Z,10.65
2023-05-08T17:06:08.696Z,10.63
2023-05-08T17:09:11.509Z,10.83
2023-05-08T17:12:15.817Z,10.75
2023-05-08T17:15:18.497Z,9.10
2023-05-08T17:18:21.032Z,10.18
2023-05-08T17:21:23.726Z,11.40
2023-05-08T17:24:26.823Z,10.48
2023-05-08T17:27:30.958Z,10.93
2023-05-08T17:30:33.866Z,11.17
2023-05-08T17:33:37.669Z,9.35
2023-05-08T17:36:40.415Z,8.90
2023-05-08T17:39:43.004Z,7.57
2023-05-08T17:42:46.976Z,7.10
2023-05-08T17:45:49.561Z,7.27
2023-05-08T17:48:52.206Z,7.38
2023-05-08T17:51:55.360Z,6.97
2023-05-08T17:54:58.606Z,6.82
2023-05-08T18:01:05.382Z,6.10
2023-05-08T18:04:08.281Z,7.18
2023-05-08T18:07:11.501Z,6.80
2023-05-08T18:13:18.213Z,7.23
2023-05-08T18:16:22.108Z,7.30
2023-05-08T18:19:24.921Z,7.00
2023-05-08T18:22:27.737Z,7.03
2023-05-08T18:25:30.454Z,6.90
2023-05-08T18:28:36.082Z,7.18
2023-05-08T18:31:38.704Z,7.17
2023-05-08T18:34:41.404Z,6.80
2023-05-08T18:37:43.983Z,7.28
2023-05-08T18:40:46.561Z,6.72
2023-05-08T18:43:50.669Z,7.10
2023-05-08T18:46:53.351Z,7.40
2023-05-08T18:49:57.766Z,7.65
2023-05-08T18:53:00.600Z,7.70
2023-05-08T18:56:04.232Z,8.73
2023-05-08T18:59:08.849Z,7.10
2023-05-08T19:02:11.651Z,7.50
2023-05-08T19:05:14.928Z,7.45
2023-05-08T19:11:20.330Z,7.67
2023-05-08T19:14:24.240Z,7.93
2023-05-08T19:17:27.302Z,8.47
2023-05-08T19:20:30.132Z,8.57
2023-05-08T19:23:32.650Z,9.07
2023-05-08T19:26:35.504Z,9.45
2023-05-08T19:29:39.440Z,9.93
2023-05-08T19:32:41.978Z,9.37
2023-05-08T19:35:44.800Z,10.25
2023-05-08T19:38:47.266Z,9.73
2023-05-08T19:41:50.420Z,10.43
2023-05-08T19:44:54.786Z,9.25
2023-05-08T19:47:57.546Z,9.93
2023-05-08T19:51:06.431Z,11.02
2023-05-08T19:54:08.922Z,10.70
2023-05-08T19:57:11.595Z,11.82
2023-05-08T20:00:16.214Z,11.10
2023-05-08T20:03:19.283Z,10.93
2023-05-08T20:06:22.174Z,11.52
2023-05-08T20:09:24.727Z,11.65
2023-05-08T20:12:27.315Z,11.50
2023-05-08T20:15:31.337Z,10.85
2023-05-08T20:18:34.944Z,11.23
2023-05-08T20:21:37.493Z,10.13
2023-05-08T20:24:40.021Z,10.70
2023-05-08T20:27:43.186Z,11.50
2023-05-08T20:30:47.088Z,11.30
2023-05-08T20:33:49.730Z,11.97
2023-05-08T20:36:52.268Z,12.48
2023-05-08T20:39:54.888Z,11.27
2023-05-08T20:42:57.582Z,10.43
2023-05-08T20:46:01.534Z,11.07
2023-05-08T20:49:04.263Z,11.37
2023-05-08T20:52:07.066Z,12.40
2023-05-08T20:55:10.403Z,11.80
2023-05-08T20:58:13.227Z,11.45
2023-05-08T21:01:19.216Z,11.75
2023-05-08T21:04:23.345Z,12.03
2023-05-08T21:07:25.955Z,12.25
2023-05-08T21:10:30.567Z,12.00
2023-05-08T21:13:33.290Z,12.23
2023-05-08T21:16:37.530Z,12.20
2023-05-08T21:19:40.280Z,12.57
2023-05-08T21:22:42.834Z,12.13
2023-05-08T21:25:46.618Z,13.15
2023-05-08T21:28:49.172Z,12.60
2023-05-08T21:31:53.529Z,11.82
2023-05-08T21:34:56.263Z,12.10
2023-05-08T21:37:58.938Z,12.45
2023-05-08T21:41:06.504Z,12.07
2023-05-08T21:44:11.664Z,13.07
2023-05-08T21:47:15.546Z,12.33
2023-05-08T21:50:18.191Z,12.00
2023-05-08T21:53:20.880Z,11.45
2023-05-08T21:56:23.690Z,11.73
2023-05-08T21:59:26.430Z,12.40
2023-05-08T22:02:30.734Z,12.75
2023-05-08T22:05:33.414Z,13.20
2023-05-08T22:08:35.957Z,12.13
2023-05-08T22:11:38.746Z,13.35
2023-05-08T22:14:41.283Z,13.10
2023-05-08T22:17:45.689Z,13.35
2023-05-08T22:20:48.248Z,12.43
2023-05-08T22:23:50.736Z,13.90
2023-05-08T22:26:53.304Z,13.45
2023-05-08T22:29:55.819Z,11.80
2023-05-08T22:33:00.176Z,12.95
2023-05-08T22:36:03.025Z,13.23
2023-05-08T22:39:07.032Z,13.25
2023-05-08T22:42:09.766Z,12.70
2023-05-08T22:45:13.127Z,12.98
2023-05-08T22:48:17.745Z,12.30
2023-05-08T22:51:20.765Z,13.67
2023-05-08T22:54:23.356Z,14.02
2023-05-08T22:57:25.923Z,12.40
2023-05-08T23:00:28.459Z,12.38
2023-05-08T23:03:32.587Z,12.95
2023-05-08T23:06:35.972Z,13.47
2023-05-08T23:12:40.961Z,13.03
2023-05-08T23:15:43.450Z,12.50
2023-05-08T23:18:47.299Z,13.17
2023-05-08T23:21:49.836Z,12.93
2023-05-08T23:24:52.507Z,13.70
2023-05-08T23:27:55.031Z,13.63
2023-05-08T23:30:57.667Z,13.77
2023-05-08T23:34:01.612Z,14.82
2023-05-08T23:37:04.400Z,13.30
2023-05-08T23:40:08.754Z,13.55
2023-05-08T23:43:11.333Z,13.90
2023-05-08T23:46:14.047Z,14.13
2023-05-08T23:49:17.961Z,13.35
2023-05-08T23:52:21.130Z,14.00
2023-05-08T23:55:23.679Z,13.63
2023-05-08T23:58:26.251Z,13.70
